Time;durP1;ratioP1;P1;durP2;ratioP2;P2;SDS_P1;SDS_P2;PMS_P1;PMS_P2;Temp;Humidity;BMP_temperature;BMP_pressure;BME280_temperature;BME280_humidity;BME280_pressure;Samples;Min_cycle;Max_cycle;Signal;HPM_P1;HPM_P2
2023/05/31 00:01:47;;;;;;;1999.90;999.90;;;16.90;99.90;;;;;;5014784;28;20084;-81
2023/05/31 00:04:12;;;;;;;1999.90;999.90;;;16.90;99.90;;;;;;5014758;28;20432;-81
2023/05/31 00:06:38;;;;;;;1999.90;999.90;;;16.80;99.90;;;;;;5014901;28;20037;-81
2023/05/31 00:09:04;;;;;;;1999.90;999.90;;;16.80;99.90;;;;;;5023693;28;20132;-81
2023/05/31 00:11:29;;;;;;;1999.90;999.90;;;16.80;99.90;;;;;;5034694;28;20030;-81
2023/05/31 00:13:55;;;;;;;1999.90;999.90;;;16.80;99.90;;;;;;5033619;28;20076;-81
2023/05/31 00:16:21;;;;;;;1999.90;999.90;;;16.70;99.90;;;;;;5031634;28;20022;-81
2023/05/31 00:18:46;;;;;;;1999.90;999.90;;;16.70;99.90;;;;;;5014704;28;20037;-81
2023/05/31 00:21:12;;;;;;;1999.90;999.90;;;16.60;99.90;;;;;;5014752;28;20038;-81
2023/05/31 00:23:38;;;;;;;1999.90;999.90;;;16.60;99.90;;;;;;5015689;28;20081;-81
2023/05/31 00:26:03;;;;;;;1999.90;999.90;;;16.60;99.90;;;;;;5015743;28;20054;-81
2023/05/31 00:28:29;;;;;;;1999.90;999.90;;;16.60;99.90;;;;;;5024780;28;20436;-81
2023/05/31 00:30:55;;;;;;;1999.90;999.90;;;16.50;99.90;;;;;;5034473;28;20037;-81
2023/05/31 00:33:20;;;;;;;1999.90;999.90;;;16.50;99.90;;;;;;5016420;28;20496;-81
2023/05/31 00:35:46;;;;;;;1999.90;999.90;;;16.50;99.90;;;;;;5015393;28;20050;-81
2023/05/31 00:38:13;;;;;;;1999.90;999.90;;;16.40;99.90;;;;;;5034025;28;20104;-81
2023/05/31 00:40:39;;;;;;;1999.90;999.90;;;16.30;99.90;;;;;;5034036;28;20505;-81
2023/05/31 00:43:04;;;;;;;1999.90;999.90;;;16.30;99.90;;;;;;5033292;28;20059;-81
2023/05/31 00:45:31;;;;;;;1999.90;999.90;;;16.30;99.90;;;;;;5033738;28;20022;-81
2023/05/31 00:48:00;;;;;;;1999.90;999.90;;;16.20;99.90;;;;;;5033846;28;20021;-81
2023/05/31 00:50:26;;;;;;;1999.90;999.90;;;16.20;99.90;;;;;;5033895;28;20033;-81
2023/05/31 00:52:54;;;;;;;1999.90;999.90;;;16.20;99.90;;;;;;5033949;28;20079;-81
2023/05/31 00:55:20;;;;;;;1999.90;999.90;;;16.10;99.90;;;;;;5033591;28;20025;-81
2023/05/31 00:57:46;;;;;;;1999.90;999.90;;;16.10;99.90;;;;;;5033877;28;20017;-81
2023/05/31 01:00:14;;;;;;;1999.90;999.90;;;16.10;99.90;;;;;;5033854;28;20033;-81
2023/05/31 01:02:41;;;;;;;1999.90;999.90;;;16.00;99.90;;;;;;5033332;28;20032;-81
2023/05/31 01:05:08;;;;;;;1999.90;999.90;;;16.00;99.90;;;;;;5033692;28;20510;-81
2023/05/31 01:07:34;;;;;;;1999.90;999.90;;;15.90;99.90;;;;;;5033532;28;20096;-81
2023/05/31 01:10:05;;;;;;;1999.90;999.90;;;15.90;99.90;;;;;;5033063;28;20480;-81
2023/05/31 01:13:04;;;;;;;1999.90;999.90;;;15.80;99.90;;;;;;5033393;28;20022;-81
2023/05/31 01:15:49;;;;;;;1999.90;999.90;;;15.70;99.90;;;;;;5033213;28;20493;-81
2023/05/31 01:18:25;;;;;;;1999.90;999.90;;;15.70;99.90;;;;;;4997285;28;20022;-81
2023/05/31 01:20:53;;;;;;;1999.90;999.90;;;15.70;99.90;;;;;;5024339;28;20030;-81
2023/05/31 01:23:53;;;;;;;1999.90;999.90;;;15.70;99.90;;;;;;5015444;28;20029;-81
2023/05/31 01:26:51;;;;;;;1999.90;999.90;;;15.60;99.90;;;;;;5033143;28;20445;-81
2023/05/31 01:29:20;;;;;;;1999.90;999.90;;;15.60;99.90;;;;;;4980080;28;20037;-81
2023/05/31 01:31:46;;;;;;;1999.90;999.90;;;15.50;99.90;;;;;;5013602;28;20499;-81
2023/05/31 01:34:13;;;;;;;1999.90;999.90;;;15.50;99.90;;;;;;5013263;28;20040;-81
2023/05/31 01:36:39;;;;;;;1999.90;999.90;;;15.40;99.90;;;;;;5012345;28;20136;-81
2023/05/31 01:39:05;;;;;;;1999.90;999.90;;;15.40;99.90;;;;;;5012999;28;20105;-81
2023/05/31 01:41:43;;;;;;;1999.90;999.90;;;15.40;99.90;;;;;;5013277;28;20040;-81
2023/05/31 01:44:10;;;;;;;1999.90;999.90;;;15.40;99.90;;;;;;5013273;28;20022;-81
2023/05/31 01:46:37;;;;;;;1999.90;999.90;;;15.40;99.90;;;;;;5013182;28;20026;-81
2023/05/31 01:49:03;;;;;;;1999.90;999.90;;;15.40;99.90;;;;;;5013237;28;20014;-81
2023/05/31 01:51:32;;;;;;;1999.90;999.90;;;15.30;99.90;;;;;;5013113;28;20096;-81
2023/05/31 01:53:59;;;;;;;1999.90;999.90;;;15.30;99.90;;;;;;5013175;28;20435;-81
2023/05/31 01:56:28;;;;;;;1999.90;999.90;;;15.30;99.90;;;;;;5013158;28;20033;-81
2023/05/31 01:58:55;;;;;;;1999.90;999.90;;;15.30;99.90;;;;;;5013361;28;20056;-81
2023/05/31 02:01:22;;;;;;;1999.90;999.90;;;15.30;99.90;;;;;;5012971;28;20030;-81
2023/05/31 02:03:51;;;;;;;1999.90;999.90;;;15.20;99.90;;;;;;5030859;28;20388;-81
2023/05/31 02:06:17;;;;;;;1999.90;999.90;;;15.20;99.90;;;;;;5032441;28;20032;-80
2023/05/31 02:08:43;;;;;;;1999.90;999.90;;;15.10;99.90;;;;;;5032905;28;20030;-80
2023/05/31 02:11:08;;;;;;;1999.90;999.90;;;15.00;99.90;;;;;;5032572;28;20025;-80
2023/05/31 02:13:35;;;;;;;1999.90;999.90;;;15.10;99.90;;;;;;5032683;28;20029;-80
2023/05/31 02:16:01;;;;;;;1999.90;999.90;;;15.00;99.90;;;;;;5032515;28;20108;-80
2023/05/31 02:18:27;;;;;;;1999.90;999.90;;;14.90;99.90;;;;;;5014841;28;20088;-80
2023/05/31 02:20:53;;;;;;;1999.90;999.90;;;14.90;99.90;;;;;;5014855;28;20029;-81
2023/05/31 02:23:20;;;;;;;1999.90;999.90;;;14.90;99.90;;;;;;5032839;28;20072;-81
2023/05/31 02:25:49;;;;;;;1999.90;999.90;;;14.80;99.90;;;;;;5033767;28;20532;-81
2023/05/31 02:28:15;;;;;;;1999.90;999.90;;;14.80;99.90;;;;;;5036239;28;20018;-81
2023/05/31 02:30:52;;;;;;;1999.90;999.90;;;14.80;99.90;;;;;;5036198;28;20029;-81
2023/05/31 02:33:18;;;;;;;1999.90;999.90;;;14.80;99.90;;;;;;5018597;28;20080;-81
2023/05/31 02:35:43;;;;;;;1999.90;999.90;;;14.70;99.90;;;;;;5035333;28;20588;-81
2023/05/31 02:38:09;;;;;;;1999.90;999.90;;;14.70;99.90;;;;;;5018852;28;20036;-81
2023/05/31 02:40:35;;;;;;;1999.90;999.90;;;14.70;99.90;;;;;;5036168;28;20025;-81
2023/05/31 02:43:00;;;;;;;1999.90;999.90;;;14.60;99.90;;;;;;5036314;28;20022;-81
2023/05/31 02:45:26;;;;;;;1999.90;999.90;;;14.60;99.90;;;;;;5036305;28;20017;-81
2023/05/31 02:47:52;;;;;;;1999.90;999.90;;;14.50;99.90;;;;;;5018232;28;20076;-81
2023/05/31 02:50:17;;;;;;;1999.90;999.90;;;14.50;99.90;;;;;;5036126;28;20029;-81
2023/05/31 02:52:43;;;;;;;1999.90;999.90;;;14.50;99.90;;;;;;5018349;28;20232;-81
2023/05/31 02:55:08;;;;;;;1999.90;999.90;;;14.50;99.90;;;;;;5035965;28;20029;-81
2023/05/31 02:57:34;;;;;;;1999.90;999.90;;;14.40;99.90;;;;;;5036294;28;20041;-81
2023/05/31 03:00:10;;;;;;;1999.90;999.90;;;14.50;99.90;;;;;;5035704;28;20037;-81
2023/05/31 03:02:40;;;;;;;1999.90;999.90;;;14.50;99.90;;;;;;5035687;28;20072;-81
2023/05/31 03:05:06;;;;;;;1999.90;999.90;;;14.40;99.90;;;;;;5036062;28;20106;-81
2023/05/31 03:07:33;;;;;;;1999.90;999.90;;;14.40;99.90;;;;;;5035598;28;20029;-81
2023/05/31 03:09:58;;;;;;;1999.90;999.90;;;14.30;99.90;;;;;;5035423;28;20021;-81
2023/05/31 03:12:24;;;;;;;1999.90;999.90;;;14.30;99.90;;;;;;5035623;28;20064;-81
2023/05/31 03:14:50;;;;;;;1999.90;999.90;;;14.30;99.90;;;;;;5035256;28;20029;-81
2023/05/31 03:17:15;;;;;;;1999.90;999.90;;;14.30;99.90;;;;;;5035811;28;20404;-81
2023/05/31 03:19:41;;;;;;;1999.90;999.90;;;14.30;99.90;;;;;;5035955;28;20400;-81
2023/05/31 03:22:06;;;;;;;1999.90;999.90;;;14.30;99.90;;;;;;5035293;28;20025;-81
2023/05/31 03:24:32;;;;;;;1999.90;999.90;;;14.40;99.90;;;;;;5017525;28;20431;-81
2023/05/31 03:26:58;;;;;;;1999.90;999.90;;;14.40;99.90;;;;;;5035505;28;20064;-81
2023/05/31 03:29:23;;;;;;;1999.90;999.90;;;14.40;99.90;;;;;;5035153;28;20029;-81
2023/05/31 03:31:49;;;;;;;1999.90;999.90;;;14.40;99.90;;;;;;5035289;28;20030;-81
2023/05/31 03:34:15;;;;;;;1999.90;999.90;;;14.40;99.90;;;;;;5035485;28;20032;-81
2023/05/31 03:36:41;;;;;;;1999.90;999.90;;;14.40;99.90;;;;;;5033868;28;20168;-81
2023/05/31 03:39:07;;;;;;;1999.90;999.90;;;14.40;99.90;;;;;;5035034;28;20151;-81
2023/05/31 03:41:32;;;;;;;1999.90;999.90;;;14.30;99.90;;;;;;5035004;28;20368;-81
2023/05/31 03:43:58;;;;;;;1999.90;999.90;;;14.30;99.90;;;;;;5035301;28;20112;-81
2023/05/31 03:46:24;;;;;;;1999.90;999.90;;;14.20;99.90;;;;;;5034937;28;20484;-81
2023/05/31 03:48:50;;;;;;;1999.90;999.90;;;14.20;99.90;;;;;;5034870;28;20022;-81
2023/05/31 03:51:16;;;;;;;1999.90;999.90;;;14.20;99.90;;;;;;5034952;28;20018;-81
2023/05/31 03:53:41;;;;;;;1999.90;999.90;;;14.10;99.90;;;;;;5035290;28;20392;-81
2023/05/31 03:56:07;;;;;;;1999.90;999.90;;;14.10;99.90;;;;;;5034770;28;20029;-81
2023/05/31 03:58:33;;;;;;;1999.90;999.90;;;14.10;99.90;;;;;;5034896;28;20065;-81
2023/05/31 04:00:58;;;;;;;1999.90;999.90;;;14.00;99.90;;;;;;5034637;28;20026;-81
2023/05/31 04:03:24;;;;;;;1999.90;999.90;;;14.00;99.90;;;;;;5034260;28;20040;-81
2023/05/31 04:05:49;;;;;;;1999.90;999.90;;;14.00;99.90;;;;;;5034908;28;20021;-81
2023/05/31 04:08:15;;;;;;;1999.90;999.90;;;14.00;99.90;;;;;;5034885;28;20118;-81
2023/05/31 04:10:41;;;;;;;1999.90;999.90;;;13.90;99.90;;;;;;5034453;28;20018;-81
2023/05/31 04:13:06;;;;;;;1999.90;999.90;;;13.90;99.90;;;;;;5034676;28;20022;-81
2023/05/31 04:15:32;;;;;;;1999.90;999.90;;;13.80;99.90;;;;;;5034291;28;20397;-80
2023/05/31 04:17:57;;;;;;;1999.90;999.90;;;13.80;99.90;;;;;;5034320;28;20017;-80
2023/05/31 04:20:23;;;;;;;1999.90;999.90;;;13.80;99.90;;;;;;5033554;28;20053;-80
2023/05/31 04:22:49;;;;;;;1999.90;999.90;;;13.80;99.90;;;;;;5034541;28;20029;-80
2023/05/31 04:25:17;;;;;;;1999.90;999.90;;;13.80;99.90;;;;;;5034173;28;20104;-81
2023/05/31 04:27:42;;;;;;;1999.90;999.90;;;13.80;99.90;;;;;;5034105;28;20500;-81
2023/05/31 04:30:08;;;;;;;1999.90;999.90;;;13.80;99.90;;;;;;5034381;28;20163;-81
2023/05/31 04:32:34;;;;;;;1999.90;999.90;;;13.80;99.90;;;;;;5034155;28;20037;-81
2023/05/31 04:35:03;;;;;;;1999.90;999.90;;;13.80;99.90;;;;;;5034164;28;20057;-81
2023/05/31 04:37:29;;;;;;;1999.90;999.90;;;13.80;99.90;;;;;;5033603;28;20135;-81
2023/05/31 04:39:56;;;;;;;1999.90;999.90;;;13.80;99.90;;;;;;5033806;28;20495;-81
2023/05/31 04:42:24;;;;;;;1999.90;999.90;;;13.80;99.90;;;;;;5033668;28;20477;-81
2023/05/31 04:44:57;;;;;;;1999.90;999.90;;;13.70;99.90;;;;;;5034420;28;20030;-81
2023/05/31 04:47:24;;;;;;;1999.90;999.90;;;13.70;99.90;;;;;;5033477;28;20028;-81
2023/05/31 04:49:50;;;;;;;1999.90;999.90;;;13.80;99.90;;;;;;5033383;28;20017;-81
2023/05/31 04:52:16;;;;;;;1999.90;999.90;;;13.80;99.90;;;;;;5033927;28;20032;-81
2023/05/31 04:54:42;;;;;;;1999.90;999.90;;;13.80;99.90;;;;;;5034001;28;20083;-81
2023/05/31 04:57:07;;;;;;;1999.90;999.90;;;13.80;99.90;;;;;;5033684;28;20036;-81
2023/05/31 04:59:33;;;;;;;1999.90;999.90;;;13.80;99.90;;;;;;5033825;28;20393;-81
2023/05/31 05:01:58;;;;;;;1999.90;999.90;;;13.80;99.90;;;;;;5030056;28;20088;-81
2023/05/31 05:04:24;;;;;;;1999.90;999.90;;;13.90;99.90;;;;;;5013763;28;20029;-81
2023/05/31 05:06:50;;;;;;;1999.90;999.90;;;14.00;99.90;;;;;;5014061;28;20065;-81
2023/05/31 05:09:16;;;;;;;1999.90;999.90;;;14.00;99.90;;;;;;5024236;28;20013;-81
2023/05/31 05:11:42;;;;;;;1999.90;999.90;;;14.00;99.90;;;;;;5033464;28;20025;-81
2023/05/31 05:14:08;;;;;;;1999.90;999.90;;;14.00;99.90;;;;;;5033206;28;20032;-81
2023/05/31 05:16:34;;;;;;;1999.90;999.90;;;14.10;99.90;;;;;;5028694;28;20064;-81
2023/05/31 05:18:59;;;;;;;1999.90;999.90;;;14.10;99.90;;;;;;5013607;28;20053;-81
2023/05/31 05:21:25;;;;;;;1999.90;999.90;;;14.10;99.90;;;;;;5013677;28;20032;-81
2023/05/31 05:23:51;;;;;;;1999.90;999.90;;;14.10;99.90;;;;;;5013489;28;20550;-81
2023/05/31 05:26:17;;;;;;;1999.90;999.90;;;14.20;99.90;;;;;;5013677;28;20025;-81
2023/05/31 05:28:42;;;;;;;1999.90;999.90;;;14.30;99.90;;;;;;5029866;28;20028;-81
2023/05/31 05:31:08;;;;;;;1999.90;999.90;;;14.30;99.90;;;;;;5030093;28;20400;-81
2023/05/31 05:33:34;;;;;;;1999.90;999.90;;;14.40;99.90;;;;;;5024022;28;20034;-81
2023/05/31 05:36:00;;;;;;;1999.90;999.90;;;14.40;99.90;;;;;;5019965;28;20054;-81
2023/05/31 05:38:25;;;;;;;1999.90;999.90;;;14.50;99.90;;;;;;5012283;28;20142;-81
2023/05/31 05:40:51;;;;;;;1999.90;999.90;;;14.50;99.90;;;;;;5034295;28;20021;-81
2023/05/31 05:43:16;;;;;;;1999.90;999.90;;;14.60;99.90;;;;;;5020592;28;20125;-81
2023/05/31 05:45:42;;;;;;;1999.90;999.90;;;14.60;99.90;;;;;;5032528;28;20025;-81
2023/05/31 05:48:08;;;;;;;1999.90;999.90;;;14.70;99.90;;;;;;5016292;28;20029;-81
2023/05/31 05:50:36;;;;;;;1999.90;999.90;;;14.70;99.90;;;;;;5032581;28;20035;-81
2023/05/31 05:53:03;;;;;;;1999.90;999.90;;;14.90;99.90;;;;;;5032747;28;20488;-81
2023/05/31 05:55:30;;;;;;;1999.90;999.90;;;14.90;99.90;;;;;;5031993;28;20349;-81
2023/05/31 05:57:55;;;;;;;1999.90;999.90;;;15.00;99.90;;;;;;5011450;28;20040;-82
2023/05/31 06:00:22;;;;;;;1999.90;999.90;;;15.00;99.90;;;;;;5031646;28;20424;-81
2023/05/31 06:02:48;;;;;;;1999.90;999.90;;;15.10;99.90;;;;;;5025244;28;20080;-81
2023/05/31 06:05:13;;;;;;;1999.90;999.90;;;15.20;99.90;;;;;;5025162;28;20030;-82
2023/05/31 06:07:39;;;;;;;1999.90;999.90;;;15.20;99.90;;;;;;5006505;28;20025;-81
2023/05/31 06:10:05;;;;;;;1999.90;999.90;;;15.30;99.90;;;;;;5023668;28;20496;-81
2023/05/31 06:12:30;;;;;;;1999.90;999.90;;;15.40;99.90;;;;;;5018032;28;20034;-81
2023/05/31 06:14:56;;;;;;;1999.90;999.90;;;15.50;99.90;;;;;;5027341;28;20021;-81
2023/05/31 06:17:22;;;;;;;1999.90;999.90;;;15.60;99.90;;;;;;5028488;28;20049;-81
2023/05/31 06:19:47;;;;;;;1999.90;999.90;;;15.70;99.90;;;;;;5030232;28;20038;-82
2023/05/31 06:22:13;;;;;;;1999.90;999.90;;;15.70;99.90;;;;;;5031033;28;20100;-81
2023/05/31 06:24:40;;;;;;;1999.90;999.90;;;15.80;99.90;;;;;;5029979;28;20472;-81
2023/05/31 06:27:06;;;;;;;1999.90;999.90;;;15.90;99.90;;;;;;5026484;28;20144;-82
2023/05/31 06:29:32;;;;;;;1999.90;999.90;;;16.00;99.90;;;;;;5029829;28;20091;-81
2023/05/31 06:31:58;;;;;;;1999.90;999.90;;;16.00;99.90;;;;;;5028222;28;20034;-82
2023/05/31 06:34:23;;;;;;;1999.90;999.90;;;16.10;99.90;;;;;;5024001;28;20022;-82
2023/05/31 06:36:49;;;;;;;1999.90;999.90;;;16.20;99.90;;;;;;5022241;28;20471;-82
2023/05/31 06:39:14;;;;;;;1999.90;999.90;;;16.20;99.90;;;;;;5028207;28;20033;-82
2023/05/31 06:41:40;;;;;;;1999.90;999.90;;;16.40;99.90;;;;;;5027908;28;20061;-82
2023/05/31 06:44:06;;;;;;;1999.90;999.90;;;16.40;99.90;;;;;;5015563;28;20547;-83
2023/05/31 06:46:31;;;;;;;1999.90;999.90;;;16.50;99.90;;;;;;5020785;28;20026;-82
2023/05/31 06:48:57;;;;;;;1999.90;999.90;;;16.60;99.90;;;;;;5026172;28;20018;-83
2023/05/31 06:51:23;;;;;;;1999.90;999.90;;;16.70;99.90;;;;;;5029724;28;20481;-82
2023/05/31 06:53:49;;;;;;;1999.90;999.90;;;16.80;99.90;;;;;;5025546;28;20116;-77
2023/05/31 06:56:15;;;;;;;1999.90;999.90;;;16.90;99.90;;;;;;5027961;28;20052;-77
2023/05/31 06:58:42;;;;;;;1999.90;999.90;;;17.00;99.90;;;;;;5027852;28;20518;-78
2023/05/31 07:01:08;;;;;;;1999.90;999.90;;;17.20;99.90;;;;;;5029554;28;20025;-85
2023/05/31 07:03:33;;;;;;;1999.90;999.90;;;17.30;99.90;;;;;;5021546;28;20098;-77
2023/05/31 07:05:59;;;;;;;1999.90;999.90;;;17.50;99.90;;;;;;5027389;28;20040;-77
2023/05/31 07:08:24;;;;;;;1999.90;999.90;;;17.60;99.90;;;;;;5028123;28;20496;-78
2023/05/31 07:10:50;;;;;;;1999.90;999.90;;;17.70;99.90;;;;;;5028312;28;20072;-77
2023/05/31 07:13:16;;;;;;;1999.90;999.90;;;17.80;99.90;;;;;;5023644;28;20795;-77
2023/05/31 07:15:41;;;;;;;1999.90;999.90;;;17.80;99.90;;;;;;5029139;28;20032;-77
2023/05/31 07:18:07;;;;;;;1999.90;999.90;;;17.90;99.90;;;;;;5030620;28;20108;-76
2023/05/31 07:20:33;;;;;;;1999.90;999.90;;;18.10;99.90;;;;;;5024139;28;20049;-76
2023/05/31 07:22:58;;;;;;;1999.90;999.90;;;18.10;99.90;;;;;;5024285;28;20029;-76
2023/05/31 07:25:24;;;;;;;1999.90;999.90;;;18.20;99.90;;;;;;5008684;28;20041;-76
2023/05/31 07:27:50;;;;;;;1999.90;999.90;;;18.40;99.90;;;;;;5017115;28;20032;-77
2023/05/31 07:30:15;;;;;;;1999.90;999.90;;;18.60;99.90;;;;;;5028891;28;20091;-80
2023/05/31 07:32:41;;;;;;;1999.90;999.90;;;19.30;99.90;;;;;;5023912;28;20036;-76
2023/05/31 07:35:07;;;;;;;1999.90;999.90;;;21.50;99.90;;;;;;5011284;28;20124;-77
2023/05/31 07:37:33;;;;;;;1999.90;999.90;;;23.50;99.90;;;;;;5031497;28;20051;-78
2023/05/31 07:39:59;;;;;;;1999.90;999.90;;;24.30;99.90;;;;;;5022427;28;20061;-75
2023/05/31 07:42:24;;;;;;;1999.90;999.90;;;25.10;99.70;;;;;;5014115;28;20164;-78
2023/05/31 07:44:50;;;;;;;1999.90;999.90;;;25.80;98.50;;;;;;5029643;28;20045;-76
2023/05/31 07:47:16;;;;;;;1999.90;999.90;;;26.70;97.20;;;;;;5029573;28;20450;-79
2023/05/31 07:49:42;;;;;;;1999.90;999.90;;;27.00;96.40;;;;;;5032193;28;20041;-79
2023/05/31 07:52:08;;;;;;;1999.90;999.90;;;27.30;96.00;;;;;;5036111;28;20026;-78
2023/05/31 07:54:34;;;;;;;1999.90;999.90;;;27.50;95.00;;;;;;5036035;28;20029;-81
2023/05/31 07:57:00;;;;;;;1999.90;999.90;;;27.30;94.40;;;;;;5031514;28;20032;-78
2023/05/31 07:59:26;;;;;;;1999.90;999.90;;;27.20;94.90;;;;;;5030392;28;20083;-80
2023/05/31 08:01:52;;;;;;;1999.90;999.90;;;27.60;94.00;;;;;;5030086;28;20420;-78
2023/05/31 08:04:17;;;;;;;1999.90;999.90;;;28.20;94.60;;;;;;5012617;28;20480;-78
2023/05/31 08:06:43;;;;;;;1999.90;999.90;;;29.10;93.10;;;;;;5031080;28;20080;-78
2023/05/31 08:09:09;;;;;;;1999.90;999.90;;;29.20;93.20;;;;;;5025778;28;20021;-79
2023/05/31 08:11:36;;;;;;;1999.90;999.90;;;29.00;93.20;;;;;;5031015;28;20135;-78
2023/05/31 08:14:03;;;;;;;1999.90;999.90;;;28.90;92.40;;;;;;5026298;28;20040;-78
2023/05/31 08:16:29;;;;;;;1999.90;999.90;;;29.00;92.10;;;;;;5031321;28;20048;-81
2023/05/31 08:18:55;;;;;;;1999.90;999.90;;;29.50;93.10;;;;;;5032073;28;20075;-78
2023/05/31 08:21:20;;;;;;;1999.90;999.90;;;29.40;91.70;;;;;;5041793;28;20045;-78
2023/05/31 08:23:46;;;;;;;1999.90;999.90;;;29.20;92.20;;;;;;5031938;28;20092;-77
2023/05/31 08:26:12;;;;;;;1999.90;999.90;;;29.50;91.80;;;;;;5016229;28;20451;-77
2023/05/31 08:28:37;;;;;;;1999.90;999.90;;;30.00;91.30;;;;;;5018699;28;20117;-77
2023/05/31 08:31:03;;;;;;;1999.90;999.90;;;29.90;91.20;;;;;;5030728;28;20029;-77
2023/05/31 08:33:30;;;;;;;1999.90;999.90;;;30.40;90.40;;;;;;5040255;28;20045;-77
2023/05/31 08:35:59;;;;;;;1999.90;999.90;;;30.80;90.60;;;;;;5020273;28;20587;-78
2023/05/31 08:38:28;;;;;;;1999.90;999.90;;;31.90;89.60;;;;;;5038930;28;20034;-77
2023/05/31 08:40:57;;;;;;;1999.90;999.90;;;31.10;90.00;;;;;;5027841;28;20090;-77
2023/05/31 08:43:26;;;;;;;1999.90;999.90;;;31.30;90.00;;;;;;5036704;28;20069;-79
2023/05/31 08:45:51;;;;;;;1999.90;999.90;;;31.70;90.20;;;;;;5027183;28;20026;-75
2023/05/31 08:48:39;;;;;;;1999.90;999.90;;;32.10;88.70;;;;;;5029713;28;20121;-78
2023/05/31 08:51:06;;;;;;;1999.90;999.90;;;32.10;87.10;;;;;;5028118;28;20506;-77
2023/05/31 08:53:33;;;;;;;1999.90;999.90;;;32.30;87.70;;;;;;5029360;28;20033;-77
2023/05/31 08:56:08;;;;;;;1999.90;999.90;;;32.20;88.30;;;;;;5031593;28;20022;-76
2023/05/31 08:58:35;;;;;;;1999.90;999.90;;;31.00;87.90;;;;;;5005622;28;20472;-76
2023/05/31 09:01:02;;;;;;;1999.90;999.90;;;31.00;90.50;;;;;;5030056;28;20033;-77
2023/05/31 09:03:28;;;;;;;1999.90;999.90;;;31.00;90.20;;;;;;5033057;28;20026;-77
2023/05/31 09:05:57;;;;;;;1999.90;999.90;;;30.30;90.80;;;;;;5026199;28;20450;-78
2023/05/31 09:08:23;;;;;;;1999.90;999.90;;;30.10;91.10;;;;;;5032211;28;20080;-77
2023/05/31 09:10:50;;;;;;;1999.90;999.90;;;29.60;91.00;;;;;;5029290;28;20037;-78
2023/05/31 09:13:15;;;;;;;1999.90;999.90;;;29.90;91.40;;;;;;5026005;28;20034;-79
2023/05/31 09:15:43;;;;;;;1999.90;999.90;;;31.10;90.00;;;;;;5026023;28;20499;-79
2023/05/31 09:18:16;;;;;;;1999.90;999.90;;;31.60;88.50;;;;;;5023556;28;20032;-76
2023/05/31 09:20:43;;;;;;;1999.90;999.90;;;31.60;87.80;;;;;;5018785;28;20026;-78
2023/05/31 09:23:09;;;;;;;1999.90;999.90;;;31.80;87.80;;;;;;5037752;28;20116;-78
2023/05/31 09:25:45;;;;;;;1999.90;999.90;;;32.40;87.60;;;;;;5031092;28;20048;-79
2023/05/31 09:28:12;;;;;;;1999.90;999.90;;;32.60;86.80;;;;;;5032993;28;20032;-80
2023/05/31 09:30:37;;;;;;;1999.90;999.90;;;32.40;86.80;;;;;;5027578;28;20033;-77
2023/05/31 09:33:03;;;;;;;1999.90;999.90;;;32.10;85.20;;;;;;5032655;28;20026;-79
2023/05/31 09:35:29;;;;;;;1999.90;999.90;;;32.70;87.90;;;;;;5023981;28;20160;-77
2023/05/31 09:37:56;;;;;;;1999.90;999.90;;;33.00;86.20;;;;;;5028305;28;20120;-76
2023/05/31 09:40:24;;;;;;;1999.90;999.90;;;33.80;86.90;;;;;;5029241;28;20026;-78
2023/05/31 09:42:52;;;;;;;1999.90;999.90;;;34.20;85.50;;;;;;5012647;28;20072;-77
2023/05/31 09:45:18;;;;;;;1999.90;999.90;;;33.40;85.00;;;;;;5027634;28;20029;-77
2023/05/31 09:47:45;;;;;;;1999.90;999.90;;;32.90;85.30;;;;;;5025116;28;20440;-76
2023/05/31 09:50:15;;;;;;;1999.90;999.90;;;33.40;85.30;;;;;;5026246;28;20029;-76
2023/05/31 09:52:43;;;;;;;1999.90;999.90;;;33.20;86.50;;;;;;5028934;28;20453;-78
2023/05/31 09:55:12;;;;;;;1999.90;999.90;;;33.70;84.40;;;;;;5028481;28;20025;-77
2023/05/31 09:57:43;;;;;;;1999.90;999.90;;;32.50;84.90;;;;;;5028551;28;20030;-77
2023/05/31 10:00:13;;;;;;;1999.90;999.90;;;32.70;85.50;;;;;;5027790;28;20132;-77
2023/05/31 10:02:42;;;;;;;1999.90;999.90;;;32.70;84.40;;;;;;5005253;28;20033;-75
2023/05/31 10:05:08;;;;;;;1999.90;999.90;;;32.00;85.50;;;;;;5027745;28;20168;-75
2023/05/31 10:07:36;;;;;;;1999.90;999.90;;;31.90;87.00;;;;;;5029765;28;20121;-74
2023/05/31 10:10:01;;;;;;;1999.90;999.90;;;32.00;87.70;;;;;;5032265;28;20018;-76
2023/05/31 10:12:29;;;;;;;1999.90;999.90;;;32.40;86.10;;;;;;5026939;28;20037;-77
2023/05/31 10:15:01;;;;;;;1999.90;999.90;;;31.40;85.50;;;;;;5027794;28;20033;-76
2023/05/31 10:17:29;;;;;;;1999.90;999.90;;;30.70;88.40;;;;;;5024605;28;20057;-76
2023/05/31 10:20:04;;;;;;;1999.90;999.90;;;30.90;89.70;;;;;;5023500;28;20519;-77
2023/05/31 10:22:31;;;;;;;1999.90;999.90;;;32.10;87.60;;;;;;5024496;28;20406;-77
2023/05/31 10:25:18;;;;;;;1999.90;999.90;;;32.00;87.10;;;;;;5012191;28;20504;-78
2023/05/31 10:27:50;;;;;;;1999.90;999.90;;;31.80;86.90;;;;;;5007620;28;20021;-77
2023/05/31 10:30:25;;;;;;;1999.90;999.90;;;31.40;87.90;;;;;;5026663;28;20034;-77
2023/05/31 10:33:03;;;;;;;1999.90;999.90;;;31.80;88.30;;;;;;5024122;28;20029;-76
2023/05/31 10:35:29;;;;;;;1999.90;999.90;;;32.00;86.50;;;;;;5018576;28;20099;-77
2023/05/31 10:37:55;;;;;;;1999.90;999.90;;;32.20;86.70;;;;;;5026296;28;20033;-77
2023/05/31 10:40:31;;;;;;;1999.90;999.90;;;31.80;86.90;;;;;;5026136;28;20021;-77
2023/05/31 10:43:06;;;;;;;1999.90;999.90;;;30.70;88.30;;;;;;5026599;28;20028;-77
2023/05/31 10:45:41;;;;;;;1999.90;999.90;;;30.60;88.40;;;;;;5028238;28;20030;-77
2023/05/31 10:48:07;;;;;;;1999.90;999.90;;;30.90;89.70;;;;;;5031848;28;20076;-77
2023/05/31 10:50:32;;;;;;;1999.90;999.90;;;30.60;88.80;;;;;;5031573;28;20060;-76
2023/05/31 10:53:12;;;;;;;1999.90;999.90;;;30.60;87.80;;;;;;5032998;28;20029;-78
2023/05/31 10:55:44;;;;;;;1999.90;999.90;;;31.10;87.60;;;;;;5028421;28;20103;-78
2023/05/31 10:58:27;;;;;;;1999.90;999.90;;;31.80;86.50;;;;;;5040354;28;20029;-78
2023/05/31 11:00:57;;;;;;;1999.90;999.90;;;32.00;85.50;;;;;;5042482;28;20028;-78
2023/05/31 11:03:24;;;;;;;1999.90;999.90;;;32.10;85.00;;;;;;5048986;28;20024;-77
2023/05/31 11:06:06;;;;;;;1999.90;999.90;;;32.60;84.70;;;;;;5031457;28;20078;-79
2023/05/31 11:08:32;;;;;;;1999.90;999.90;;;32.40;84.80;;;;;;5035516;28;20029;-77
2023/05/31 11:11:32;;;;;;;1999.90;999.90;;;32.20;84.80;;;;;;5032222;28;20041;-78
2023/05/31 11:14:07;;;;;;;1999.90;999.90;;;31.40;88.00;;;;;;5030378;28;20021;-78
2023/05/31 11:16:34;;;;;;;1999.90;999.90;;;32.00;86.90;;;;;;5027131;28;20108;-78
2023/05/31 11:19:13;;;;;;;1999.90;999.90;;;32.60;86.20;;;;;;5026568;28;20045;-78
2023/05/31 11:21:51;;;;;;;1999.90;999.90;;;33.40;85.60;;;;;;5035618;28;20408;-79
2023/05/31 11:24:57;;;;;;;1999.90;999.90;;;33.40;83.30;;;;;;5041822;28;20064;-79
2023/05/31 11:27:36;;;;;;;1999.90;999.90;;;32.40;83.20;;;;;;5035878;28;20025;-79
2023/05/31 11:30:12;;;;;;;1999.90;999.90;;;32.60;84.30;;;;;;5035656;28;20025;-79
2023/05/31 11:32:37;;;;;;;1999.90;999.90;;;32.90;84.30;;;;;;5038847;28;20041;-79
2023/05/31 11:35:06;;;;;;;1999.90;999.90;;;32.40;86.70;;;;;;5031160;28;20172;-80
2023/05/31 11:37:37;;;;;;;1999.90;999.90;;;32.70;85.00;;;;;;5025196;28;20029;-79
2023/05/31 11:40:07;;;;;;;1999.90;999.90;;;32.50;83.90;;;;;;5038475;28;20406;-78
2023/05/31 11:42:36;;;;;;;1999.90;999.90;;;32.00;85.30;;;;;;5036275;28;20314;-80
2023/05/31 11:45:13;;;;;;;1999.90;999.90;;;31.80;84.40;;;;;;5015514;28;20026;-79
2023/05/31 11:47:48;;;;;;;1999.90;999.90;;;31.90;85.90;;;;;;5037263;28;20025;-80
2023/05/31 11:50:16;;;;;;;1999.90;999.90;;;32.30;85.40;;;;;;5037364;28;20068;-79
2023/05/31 11:52:42;;;;;;;1999.90;999.90;;;32.20;85.40;;;;;;5028335;28;20061;-80
2023/05/31 11:55:09;;;;;;;1999.90;999.90;;;33.00;85.40;;;;;;5029266;28;20036;-79
2023/05/31 11:57:45;;;;;;;1999.90;999.90;;;32.50;82.70;;;;;;5028887;28;20511;-79
2023/05/31 12:00:15;;;;;;;1999.90;999.90;;;32.10;83.80;;;;;;5036195;28;20025;-78
2023/05/31 12:02:44;;;;;;;1999.90;999.90;;;32.50;84.10;;;;;;5032088;28;20025;-78